Home > Products > Valid Products > MTR

000
SAUS45 KABQ 251154
MTRTCS
METAR KTCS 251153Z AUTO 29006KT 10SM CLR 11/06 A3024 RMK AO2 SLP176
T01110061 10156 20111 55005 TSNO





000
SAUS45 KABQ 251154
MTRCQC
METAR KCQC 251153Z AUTO 30012KT 10SM CLR 08/M03 A3033 RMK AO2 SLP198
T00781033 10117 20067 56002





000
SAUS45 KABQ 251152
MTRABQ
METAR KABQ 251152Z 00000KT 10SM CLR 11/03 A3029 RMK AO2 SLP197
T01060028 10167 20106 55000





000
SAUS45 KABQ 251054
MTRTCS
METAR KTCS 251053Z AUTO 31006KT 10SM CLR 13/06 A3024 RMK AO2 SLP170
T01280061 TSNO





000
SAUS45 KABQ 251054
MTRCQC
METAR KCQC 251053Z AUTO 29011KT 10SM CLR 07/M02 A3033 RMK AO2 SLP197
T00721022





000
SAUS45 KABQ 251054
MTRTCS
METAR KTCS 251053Z AUTO 31006KT 10SM CLR 13/06 A3024 RMK AO2 SLP170
T01280061 TSNO





000
SAUS45 KABQ 251054
MTRCQC
METAR KCQC 251053Z AUTO 29011KT 10SM CLR 07/M02 A3033 RMK AO2 SLP197
T00721022





000
SAUS45 KABQ 251053
MTRABQ
METAR KABQ 251052Z 00000KT 10SM CLR 12/02 A3029 RMK AO2 SLP191
T01220022





000
SAUS45 KABQ 251053
MTRABQ
METAR KABQ 251052Z 00000KT 10SM CLR 12/02 A3029 RMK AO2 SLP191
T01220022





000
SAUS45 KABQ 250954
MTRCQC
METAR KCQC 250953Z AUTO 29012KT 10SM CLR 09/M01 A3033 RMK AO2 SLP188
T00891011





000
SAUS45 KABQ 250954
MTRTCS
METAR KTCS 250953Z AUTO 29008KT 10SM CLR 13/06 A3024 RMK AO2 SLP172
T01330061 TSNO





000
SAUS45 KABQ 250952
MTRABQ
METAR KABQ 250952Z 03003KT 10SM CLR 13/03 A3029 RMK AO2 SLP191
T01330028





000
SAUS45 KABQ 250854
MTRCQC
METAR KCQC 250853Z AUTO 29012KT 10SM CLR 09/M01 A3034 RMK AO2 SLP190
T00891006 56004





000
SAUS45 KABQ 250854
MTRTCS
METAR KTCS 250853Z AUTO 25003KT 10SM CLR 16/07 A3025 RMK AO2 SLP174
T01560067 50000 TSNO





000
SAUS45 KABQ 250852
MTRABQ
METAR KABQ 250852Z 00000KT 10SM CLR 14/02 A3029 RMK AO2 SLP189
T01440017 55000





000
SAUS45 KABQ 250754
MTRTCS
METAR KTCS 250753Z AUTO 28007KT 10SM CLR 15/07 A3026 RMK AO2 SLP177
T01500072 TSNO





000
SAUS45 KABQ 250754
MTRCQC
METAR KCQC 250753Z AUTO 29013KT 10SM CLR 08/M02 A3034 RMK AO2 SLP195
T00831022





000
SAUS45 KABQ 250752
MTRABQ
METAR KABQ 250752Z 00000KT 10SM CLR 15/02 A3029 RMK AO2 SLP189
T01500022





000
SAUS45 KABQ 250654
MTRTCS
METAR KTCS 250653Z AUTO 28007KT 10SM CLR 15/08 A3025 RMK AO2 SLP177
T01500083 402670111 TSNO





000
SAUS45 KABQ 250654
MTRCQC
METAR KCQC 250653Z AUTO 30012KT 10SM CLR 10/M02 A3034 RMK AO2 SLP192
T01001017 402440072





000
SAUS45 KABQ 250652
MTRABQ
METAR KABQ 250652Z 11003KT 10SM CLR 15/03 A3029 RMK AO2 SLP191
T01500028 402610083





000
SAUS45 KABQ 250554
MTRCQC
METAR KCQC 250553Z AUTO 29009KT 10SM CLR 11/M02 A3035 RMK AO2 SLP197
T01061017 10206 20106 51005





000
SAUS45 KABQ 250554
MTRTCS
METAR KTCS 250553Z AUTO 00000KT 10SM CLR 15/07 A3025 RMK AO2 SLP179
T01500072 10256 20150 51007 TSNO





000
SAUS45 KABQ 250553
MTRABQ
METAR KABQ 250552Z 11004KT 10SM CLR 16/01 A3029 RMK AO2 SLP197
T01560011 10250 20128 51009





000
SAUS45 KABQ 250454
MTRCQC
METAR KCQC 250453Z AUTO 27012KT 10SM CLR 13/M02 A3035 RMK AO2 SLP196
T01281022





000
SAUS45 KABQ 250454
MTRTCS
METAR KTCS 250453Z AUTO 28004KT 10SM CLR 18/07 A3025 RMK AO2 SLP179
T01780072 TSNO





000
SAUS45 KABQ 250453
MTRABQ
METAR KABQ 250452Z 11005KT 10SM CLR 13/03 A3029 RMK AO2 SLP206
T01330028





000
SAUS45 KABQ 250354
MTRTCS
METAR KTCS 250353Z AUTO 17006KT 10SM CLR 19/06 A3024 RMK AO2 SLP175
T01940061 TSNO





000
SAUS45 KABQ 250354
MTRCQC
METAR KCQC 250353Z AUTO 28011KT 10SM CLR 12/M03 A3034 RMK AO2 SLP204
T01171028





000
SAUS45 KABQ 250354
MTRCQC
METAR KCQC 250353Z AUTO 28011KT 10SM CLR 12/M03 A3034 RMK AO2 SLP204
T01171028





000
SAUS45 KABQ 250354
MTRTCS
METAR KTCS 250353Z AUTO 17006KT 10SM CLR 19/06 A3024 RMK AO2 SLP175
T01940061 TSNO





000
SAUS45 KABQ 250353
MTRABQ
METAR KABQ 250352Z 00000KT 10SM CLR 16/02 A3028 RMK AO2 SLP202
T01560022





000
SAUS45 KABQ 250353
MTRABQ
METAR KABQ 250352Z 00000KT 10SM CLR 16/02 A3028 RMK AO2 SLP202
T01560022





000
SAUS45 KABQ 250254
MTRTCS
METAR KTCS 250253Z AUTO 21006KT 10SM CLR 21/05 A3023 RMK AO2 SLP172
T02110050 51010 TSNO





000
SAUS45 KABQ 250254
MTRCQC
METAR KCQC 250253Z AUTO 26009KT 10SM CLR 12/M03 A3033 RMK AO2 SLP206
T01171033 51009





000
SAUS45 KABQ 250253
MTRABQ
METAR KABQ 250252Z 00000KT 10SM CLR 18/01 A3026 RMK AO2 SLP199
T01830011 53011





000
SAUS45 KABQ 250154
MTRCQC
METAR KCQC 250153Z AUTO 29010KT 10SM CLR 13/M05 A3032 RMK AO2 SLP211
T01331050





000
SAUS45 KABQ 250154
MTRTCS
METAR KTCS 250153Z AUTO 20007KT 10SM CLR 22/06 A3022 RMK AO2 SLP176
T02220061 TSNO





000
SAUS45 KABQ 250153
MTRABQ
METAR KABQ 250152Z 16005KT 10SM CLR 19/01 A3025 RMK AO2 SLP193
T01940011





000
SAUS45 KABQ 250054
MTRCQC
METAR KCQC 250053Z AUTO 30012KT 10SM CLR 17/M04 A3031 RMK AO2 SLP199
T01721044





000
SAUS45 KABQ 250054
MTRTCS
METAR KTCS 250053Z AUTO 20004KT 10SM CLR 23/07 A3020 RMK AO2 SLP165
T02330067 TSNO





000
SAUS45 KABQ 250053
MTRABQ
METAR KABQ 250052Z 13003KT 10SM CLR 22/01 A3023 RMK AO2 SLP184
T02170011





000
SAUS45 KABQ 242354
MTRTCS
METAR KTCS 242353Z AUTO 18005KT 10SM CLR 26/07 A3019 RMK AO2 SLP158
T02560067 10267 20217 56006 TSNO





000
SAUS45 KABQ 242354
MTRCQC
METAR KCQC 242353Z AUTO 30012KT 10SM CLR 21/M04 A3030 RMK AO2 SLP187
T02061039 10244 20206 50001





000
SAUS45 KABQ 242352
MTRABQ
METAR KABQ 242352Z 17004KT 10SM FEW250 25/M01 A3023 RMK AO2 SLP177
T02501006 10261 20194 58009





000
SAUS45 KABQ 242254
MTRCQC
METAR KCQC 242253Z AUTO 29014KT 10SM CLR 23/M08 A3030 RMK AO2 SLP185
T02281078





000
SAUS45 KABQ 242254
MTRTCS
METAR KTCS 242253Z AUTO 18006KT 10SM CLR 27/05 A3020 RMK AO2 SLP157
T02670050 TSNO





000
SAUS45 KABQ 242252
MTRABQ
METAR KABQ 242252Z 20005KT 10SM CLR 25/M01 A3024 RMK AO2 SLP174
T02501006





000
SAUS45 KABQ 242154
MTRTCS
METAR KTCS 242153Z AUTO 20007KT 160V220 10SM CLR 27/06 A3020 RMK AO2
SLP158 T02670061 TSNO





000
SAUS45 KABQ 242154
MTRCQC
METAR KCQC 242153Z AUTO 29017KT 10SM CLR 24/M06 A3030 RMK AO2 SLP179
T02391056





000
SAUS45 KABQ 242152
MTRABQ
METAR KABQ 242152Z 22005KT 10SM CLR 25/M01 A3025 RMK AO2 SLP183
T02501006





000
SAUS45 KABQ 242054
MTRTCS
METAR KTCS 242053Z AUTO 16005KT 10SM CLR 26/06 A3021 RMK AO2 SLP162
T02560056 56024 TSNO





000
SAUS45 KABQ 242054
MTRCQC
METAR KCQC 242053Z AUTO 29018G23KT 10SM CLR 24/M06 A3030 RMK AO2
SLP178 T02391061 56016





000
SAUS45 KABQ 242052
MTRABQ
METAR KABQ 242052Z 26006KT 10SM CLR 25/01 A3026 RMK AO2 SLP180
T02500006 56026





000
SAUS45 KABQ 241958 COR
MTRCQC
METAR KCQC 241953Z AUTO 30016G25KT 10SM CLR 23/M05 A3031 RMK AO2 PK
WND 29027/1856 SLP185 T02331050





000
SAUS45 KABQ 241958 COR
MTRCQC
METAR KCQC 241953Z AUTO 30016G25KT 10SM CLR 23/M05 A3031 RMK AO2 PK
WND 29027/1856 SLP185 T02331050





000
SAUS45 KABQ 241956 COR
MTRCQC
METAR KCQC 241953Z AUTO 30016G25KT 10SM CLR 23/M05 A3031 RMK AO2 PK
WND 29027/1856 SLP185 T02331050





000
SAUS45 KABQ 241956 COR
MTRCQC
METAR KCQC 241953Z AUTO 30016G25KT 10SM CLR 23/M05 A3031 RMK AO2 PK
WND 29027/1856 SLP185 T02331050





000
SAUS45 KABQ 241955 COR
MTRCQC
METAR KCQC 241953Z AUTO 30016G25KT 10SM CLR 23/M05 A3031 RMK AO2 PK
WND 29027/1856 SLP185 T02331050





000
SAUS45 KABQ 241955 COR
MTRCQC
METAR KCQC 241953Z AUTO 30016G25KT 10SM CLR 23/M05 A3031 RMK AO2 PK
WND 29027/1856 SLP185 T02331050





000
SAUS45 KABQ 241954
MTRTCS
METAR KTCS 241953Z AUTO 23005KT 10SM CLR 24/07 A3024 RMK AO2 SLP172
T02440067 TSNO





000
SAUS45 KABQ 241954
MTRCQC
METAR KCQC 241953Z AUTO 30016G25KT 10SM CLR 23/M05 A3031 RMK AO2 PK
WND 29027/1856 SLP185 T02331050





000
SAUS45 KABQ 241954
MTRTCS
METAR KTCS 241953Z AUTO 23005KT 10SM CLR 24/07 A3024 RMK AO2 SLP172
T02440067 TSNO





000
SAUS45 KABQ 241954
MTRCQC
METAR KCQC 241953Z AUTO 30016G25KT 10SM CLR 23/M05 A3031 RMK AO2 PK
WND 29027/1856 SLP185 T02331050





000
SAUS45 KABQ 241952
MTRABQ
METAR KABQ 241952Z 00000KT 10SM CLR 23/00 A3028 RMK AO2 SLP188
T02330000





000
SAUS45 KABQ 241952
MTRABQ
METAR KABQ 241952Z 00000KT 10SM CLR 23/00 A3028 RMK AO2 SLP188
T02330000





000
SAUS45 KABQ 241854
MTRTCS
METAR KTCS 241853Z AUTO VRB03KT 10SM CLR 23/08 A3027 RMK AO2 SLP185
T02330078 TSNO





000
SAUS45 KABQ 241854
MTRCQC
METAR KCQC 241853Z AUTO 29020G26KT 10SM CLR 23/M04 A3033 RMK AO2 PK
WND 29026/1853 SLP193 T02281039





000
SAUS45 KABQ 241852
MTRABQ
METAR KABQ 241852Z 00000KT 10SM CLR 22/01 A3032 RMK AO2 SLP199
T02220006





000
SAUS45 KABQ 241758 COR
MTRCQC
METAR KCQC 241753Z AUTO 31020KT 10SM CLR 21/M03 A3035 RMK AO2 PK WND
29028/1704 SLP206 T02111033 10217 20072 50001





000
SAUS45 KABQ 241756 COR
MTRCQC
METAR KCQC 241753Z AUTO 31020KT 10SM CLR 21/M03 A3035 RMK AO2 PK WND
29028/1704 SLP206 T02111033 10217 20072 50001





000
SAUS45 KABQ 241755 COR
MTRCQC
METAR KCQC 241753Z AUTO 31020KT 10SM CLR 21/M03 A3035 RMK AO2 PK WND
29028/1704 SLP206 T02111033 10217 20072 50001





000
SAUS45 KABQ 241754
MTRCQC
METAR KCQC 241753Z AUTO 31020KT 10SM CLR 21/M03 A3035 RMK AO2 PK WND
29028/1704 SLP206 T02111033 10217 20072 50001





000
SAUS45 KABQ 241754
MTRTCS
METAR KTCS 241753Z AUTO VRB03KT 10SM CLR 22/08 A3030 RMK AO2 SLP196
T02220078 10222 20111 58002 TSNO





000
SAUS45 KABQ 241752
MTRABQ
METAR KABQ 241752Z 00000KT 10SM CLR 19/01 A3035 RMK AO2 SLP218
T01940006 10194 20083 58001





000
SAUS45 KABQ 241654
MTRTCS
METAR KTCS 241653Z AUTO 00000KT 10SM CLR 19/08 A3031 RMK AO2 SLP202
T01940083 TSNO





000
SAUS45 KABQ 241654
MTRCQC
METAR KCQC 241653Z AUTO 30016G25KT 10SM CLR 19/M02 A3037 RMK AO2
SLP210 T01891017





000
SAUS45 KABQ 241652
MTRABQ
METAR KABQ 241652Z 02003KT 10SM CLR 18/01 A3036 RMK AO2 SLP228
T01780006





000
SAUS45 KABQ 241554
MTRCQC
METAR KCQC 241553Z AUTO 30016KT 10SM CLR 16/M01 A3036 RMK AO2 SLP210
T01561006





000
SAUS45 KABQ 241554
MTRTCS
METAR KTCS 241553Z AUTO 05005KT 10SM CLR 18/07 A3031 RMK AO2 SLP204
T01780072 TSNO





000
SAUS45 KABQ 241553
MTRABQ
METAR KABQ 241552Z 03007KT 10SM FEW250 15/01 A3036 RMK AO2 SLP226
T01500006





000
SAUS45 KABQ 241454
MTRTCS
METAR KTCS 241453Z AUTO 01003KT 10SM CLR 16/07 A3030 RMK AO2 SLP201
T01560072 53016 TSNO





000
SAUS45 KABQ 241454
MTRCQC
METAR KCQC 241453Z AUTO 30015KT 10SM CLR 14/M01 A3035 RMK AO2 SLP212
T01391006 52010





000
SAUS45 KABQ 241453
MTRABQ
METAR KABQ 241452Z 33003KT 10SM FEW250 11/02 A3035 RMK AO2 SLP226
T01060022 53014





000
SAUS45 KABQ 241355
MTRTCS
METAR KTCS 241353Z AUTO 02006KT 10SM CLR 11/07 A3028 RMK AO2 SLP199
T01110067 TSNO





000
SAUS45 KABQ 241354
MTRCQC
METAR KCQC 241353Z AUTO 28006KT 10SM CLR 08/M01 A3034 RMK AO2 SLP218
T00831011





000
SAUS45 KABQ 241354
MTRABQ
METAR KABQ 241352Z 28004KT 10SM FEW250 11/02 A3031 RMK AO2 SLP218
T01060022





000
SAUS45 KABQ 241254
MTRTCS
METAR KTCS 241253Z AUTO 30007KT 10SM CLR 12/07 A3026 RMK AO2 SLP188
T01170067 TSNO





000
SAUS45 KABQ 241254
MTRCQC
METAR KCQC 241253Z AUTO 29013KT 10SM CLR 08/M01 A3032 RMK AO2 SLP208
T00781011





000
SAUS45 KABQ 241252
MTRABQ
METAR KABQ 241252Z 04004KT 10SM CLR 09/02 A3031 RMK AO2 SLP208
T00940022





000
SAUS45 KABQ 241154
MTRCQC
METAR KCQC 241153Z AUTO 28013KT 10SM CLR 08/M01 A3031 RMK AO2 SLP197
T00781011 10094 20072 53000





000
SAUS45 KABQ 241154
MTRTCS
METAR KTCS 241153Z AUTO 30005KT 10SM CLR 12/07 A3025 RMK AO2 SLP179
T01170067 10144 20111 53004 TSNO





000
SAUS45 KABQ 241152
MTRABQ
METAR KABQ 241152Z 00000KT 10SM CLR 08/02 A3030 RMK AO2 SLP208
T00830017 10161 20083 53004





000
SAUS45 KABQ 241054
MTRTCS
METAR KTCS 241053Z AUTO 28003KT 10SM CLR 12/07 A3024 RMK AO2 SLP174
T01220072 TSNO





000
SAUS45 KABQ 241054
MTRTCS
METAR KTCS 241053Z AUTO 28003KT 10SM CLR 12/07 A3024 RMK AO2 SLP174
T01220072 TSNO





000
SAUS45 KABQ 241054
MTRCQC
METAR KCQC 241053Z AUTO 30011KT 10SM CLR 07/M02 A3030 RMK AO2 SLP194
T00721017





000
SAUS45 KABQ 241054
MTRCQC
METAR KCQC 241053Z AUTO 30011KT 10SM CLR 07/M02 A3030 RMK AO2 SLP194
T00721017





000
SAUS45 KABQ 241052
MTRABQ
METAR KABQ 241052Z 33003KT 10SM CLR 13/01 A3028 RMK AO2 SLP192
T01280011





000
SAUS45 KABQ 241052
MTRABQ
METAR KABQ 241052Z 33003KT 10SM CLR 13/01 A3028 RMK AO2 SLP192
T01280011





000
SAUS45 KABQ 240954
MTRCQC
METAR KCQC 240953Z AUTO 30010KT 10SM CLR 08/M01 A3030 RMK AO2 SLP185
T00831011





000
SAUS45 KABQ 240954
MTRTCS
METAR KTCS 240953Z AUTO 31006KT 10SM CLR 13/07 A3024 RMK AO2 SLP173
T01330072 TSNO





000
SAUS45 KABQ 240952
MTRABQ
METAR KABQ 240952Z 14003KT 10SM CLR 09/03 A3027 RMK AO2 SLP195
T00940028





000
SAUS45 KABQ 240909
MTRABQ
METAR KABQ 240852Z COR 14006KT 10SM CLR 12/03 A3028 RMK AO2 SLP197
T01220028 51004





000
SAUS45 KABQ 240854
MTRTCS
METAR KTCS 240853Z AUTO 28009KT 10SM CLR 14/07 A3023 RMK AO2 SLP169
T01440072 51003 TSNO





000
SAUS45 KABQ 240854
MTRCQC
METAR KCQC 240853Z AUTO 31015KT 10SM CLR 08/M01 A3031 RMK AO2 SLP192
T00781011 58001





000
SAUS45 KABQ 240852
MTRABQ
METAR KABQ 240852Z 10SM CLR 12/03 A3028 RMK AO2 SLP197 T01220028
51004





000
SAUS45 KABQ 240754
MTRTCS
METAR KTCS 240753Z AUTO 29009KT 10SM CLR 14/08 A3023 RMK AO2 SLP170
T01390078 TSNO





000
SAUS45 KABQ 240754
MTRCQC
METAR KCQC 240753Z AUTO 29013KT 10SM CLR 08/M01 A3032 RMK AO2 SLP195
T00781011





000
SAUS45 KABQ 240752
MTRABQ
METAR KABQ 240752Z 00000KT 10SM CLR 14/03 A3028 RMK AO2 SLP192
T01390028





000
SAUS45 KABQ 240654
MTRTCS
METAR KTCS 240653Z AUTO 28008KT 10SM CLR 14/08 A3023 RMK AO2 SLP172
T01390083 402560111 TSNO





000
SAUS45 KABQ 240654
MTRCQC
METAR KCQC 240653Z AUTO 29012KT 10SM CLR 08/M01 A3033 RMK AO2 SLP196
T00831011 402170044





000
SAUS45 KABQ 240652
MTRABQ
METAR KABQ 240652Z 00000KT 10SM CLR 16/02 A3029 RMK AO2 SLP195
T01610022 402440106





000
SAUS45 KABQ 240554
MTRCQC
METAR KCQC 240553Z AUTO 26009KT 10SM CLR 08/M02 A3032 RMK AO2 SLP196
T00781017 10178 20078 50005





000
SAUS45 KABQ 240554
MTRTCS
METAR KTCS 240553Z AUTO 29005KT 10SM CLR 14/09 A3022 RMK AO2 SLP173
T01390089 10244 20139 51007 TSNO





000
SAUS45 KABQ 240553
MTRABQ
METAR KABQ 240552Z 10003KT 10SM CLR 14/03 A3027 RMK AO2 SLP194
T01440028 10228 20122 51007





000
SAUS45 KABQ 240455
MTRCQC
METAR KCQC 240453Z AUTO 30009KT 10SM CLR 10/M01 A3032 RMK AO2 SLP200
T01001006





000
SAUS45 KABQ 240455
MTRCQC
METAR KCQC 240453Z AUTO 30009KT 10SM CLR 10/M01 A3032 RMK AO2 SLP200
T01001006





000
SAUS45 KABQ 240454
MTRTCS
METAR KTCS 240453Z AUTO 27005KT 10SM CLR 16/09 A3022 RMK AO2 SLP172
T01560089 TSNO





000
SAUS45 KABQ 240454
MTRTCS
METAR KTCS 240453Z AUTO 27005KT 10SM CLR 16/09 A3022 RMK AO2 SLP172
T01560089 TSNO





000
SAUS45 KABQ 240453
MTRABQ
METAR KABQ 240452Z 12004KT 10SM CLR 13/03 A3027 RMK AO2 SLP198
T01330033





000
SAUS45 KABQ 240453
MTRABQ
METAR KABQ 240452Z 12004KT 10SM CLR 13/03 A3027 RMK AO2 SLP198
T01330033





000
SAUS45 KABQ 240354
MTRTCS
METAR KTCS 240353Z AUTO 23003KT 10SM CLR 17/09 A3021 RMK AO2 SLP181
T01670089 TSNO





000
SAUS45 KABQ 240354
MTRTCS
METAR KTCS 240353Z AUTO 23003KT 10SM CLR 17/09 A3021 RMK AO2 SLP181
T01670089 TSNO





000
SAUS45 KABQ 240354
MTRCQC
METAR KCQC 240353Z AUTO 28009KT 10SM CLR 12/00 A3031 RMK AO2 SLP195
T01170000





000
SAUS45 KABQ 240354
MTRCQC
METAR KCQC 240353Z AUTO 28009KT 10SM CLR 12/00 A3031 RMK AO2 SLP195
T01170000





000
SAUS45 KABQ 240353
MTRABQ
METAR KABQ 240352Z 10005KT 10SM FEW270 17/03 A3026 RMK AO2 SLP191
T01670028





000
SAUS45 KABQ 240353
MTRABQ
METAR KABQ 240352Z 10005KT 10SM FEW270 17/03 A3026 RMK AO2 SLP191
T01670028





000
SAUS45 KABQ 240254
MTRCQC
METAR KCQC 240253Z AUTO 28011KT 10SM CLR 12/00 A3030 RMK AO2 SLP198
T01170000 51012





000
SAUS45 KABQ 240254
MTRCQC
METAR KCQC 240253Z AUTO 28011KT 10SM CLR 12/00 A3030 RMK AO2 SLP198
T01170000 51012





000
SAUS45 KABQ 240254
MTRTCS
METAR KTCS 240253Z AUTO 26004KT 10SM CLR 18/08 A3020 RMK AO2 SLP174
T01830078 51011 TSNO





000
SAUS45 KABQ 240254
MTRTCS
METAR KTCS 240253Z AUTO 26004KT 10SM CLR 18/08 A3020 RMK AO2 SLP174
T01830078 51011 TSNO





000
SAUS45 KABQ 240253
MTRABQ
METAR KABQ 240252Z 19004KT 10SM FEW270 19/02 A3025 RMK AO2 SLP190
T01890017 53015





000
SAUS45 KABQ 240253
MTRABQ
METAR KABQ 240252Z 19004KT 10SM FEW270 19/02 A3025 RMK AO2 SLP190
T01890017 53015





000
SAUS45 KABQ 240154
MTRTCS
METAR KTCS 240153Z AUTO 25003KT 10SM CLR 20/08 A3019 RMK AO2 SLP165
T02000078 TSNO





000
SAUS45 KABQ 240154
MTRCQC
METAR KCQC 240153Z AUTO 29014KT 10SM CLR 13/00 A3029 RMK AO2 SLP203
T01330000





000
SAUS45 KABQ 240154
MTRCQC
METAR KCQC 240153Z AUTO 29014KT 10SM CLR 13/00 A3029 RMK AO2 SLP203
T01330000





000
SAUS45 KABQ 240154
MTRTCS
METAR KTCS 240153Z AUTO 25003KT 10SM CLR 20/08 A3019 RMK AO2 SLP165
T02000078 TSNO





000
SAUS45 KABQ 240153
MTRABQ
METAR KABQ 240152Z 16003KT 10SM FEW270 18/03 A3023 RMK AO2 SLP185
T01780028





000
SAUS45 KABQ 240153
MTRABQ
METAR KABQ 240152Z 16003KT 10SM FEW270 18/03 A3023 RMK AO2 SLP185
T01780028





000
SAUS45 KABQ 240054
MTRCQC
METAR KCQC 240053Z AUTO 29015KT 10SM CLR 15/00 A3028 RMK AO2 SLP198
T01500000





000
SAUS45 KABQ 240054
MTRTCS
METAR KTCS 240053Z AUTO 22003KT 10SM CLR 22/07 A3018 RMK AO2 SLP159
T02170072 TSNO





000
SAUS45 KABQ 240053
MTRABQ
METAR KABQ 240052Z 00000KT 10SM FEW270 22/01 A3021 RMK AO2 SLP173
T02220011





000
SAUS45 KABQ 232355
MTRTCS
METAR KTCS 232353Z AUTO 20005KT 10SM CLR 24/06 A3016 RMK AO2 SLP148
T02440056 10256 20217 55004 TSNO





000
SAUS45 KABQ 232354
MTRCQC
METAR KCQC 232353Z AUTO 30013KT 10SM CLR 18/M01 A3026 RMK AO2 SLP174
T01831006 10217 20183 53002





000
SAUS45 KABQ 232352
MTRABQ
METAR KABQ 232352Z 26005KT 10SM FEW270 23/02 A3020 RMK AO2 SLP166
T02280017 10244 20183 55003





000
SAUS45 KABQ 232255
MTRTCS
METAR KTCS 232253Z AUTO 16007KT 10SM CLR 25/04 A3015 RMK AO2 SLP143
T02500039 TSNO





000
SAUS45 KABQ 232254
MTRCQC
METAR KCQC 232253Z AUTO 31016KT 10SM CLR 19/M01 A3025 RMK AO2 SLP170
T01941006





000
SAUS45 KABQ 232252
MTRABQ
METAR KABQ 232252Z 30006KT 10SM FEW270 23/01 A3019 RMK AO2 SLP163
T02330011





000
SAUS45 KABQ 232154
MTRTCS
METAR KTCS 232153Z AUTO 14005KT 10SM CLR 25/03 A3016 RMK AO2 SLP145
T02500033 TSNO





000
SAUS45 KABQ 232154
MTRCQC
METAR KCQC 232153Z AUTO 31015G24KT 10SM CLR 21/M03 A3024 RMK AO2
SLP164 T02111028





000
SAUS45 KABQ 232154
MTRCQC
METAR KCQC 232153Z AUTO 31015G24KT 10SM CLR 21/M03 A3024 RMK AO2
SLP164 T02111028





000
SAUS45 KABQ 232154
MTRTCS
METAR KTCS 232153Z AUTO 14005KT 10SM CLR 25/03 A3016 RMK AO2 SLP145
T02500033 TSNO





000
SAUS45 KABQ 232152
MTRABQ
METAR KABQ 232152Z 25006KT 10SM FEW270 23/02 A3020 RMK AO2 SLP162
T02330017





000
SAUS45 KABQ 232152
MTRABQ
METAR KABQ 232152Z 25006KT 10SM FEW270 23/02 A3020 RMK AO2 SLP162
T02330017





000
SAUS45 KABQ 232054
MTRTCS
METAR KTCS 232053Z AUTO 10SM CLR 26/04 A3018 RMK AO2 SLP145
T02560044 56021 TSNO





000
SAUS45 KABQ 232054
MTRCQC
METAR KCQC 232053Z AUTO 28017KT 10SM CLR 21/M04 A3025 RMK AO2 SLP166
T02111039 58016





000
SAUS45 KABQ 232053
MTRABQ
METAR KABQ 232052Z VRB03KT 10SM CLR 22/02 A3021 RMK AO2 SLP167
T02220022 58025





000
SAUS45 KABQ 231954
MTRCQC
METAR KCQC 231953Z AUTO 28019G24KT 10SM CLR 21/M01 A3027 RMK AO2
SLP177 T02061011





000
SAUS45 KABQ 231954
MTRTCS
METAR KTCS 231953Z AUTO 08005KT 10SM CLR 24/05 A3020 RMK AO2 SLP152
T02440050 TSNO





000
SAUS45 KABQ 231954
MTRCQC
METAR KCQC 231953Z AUTO 28019G24KT 10SM CLR 21/M01 A3027 RMK AO2
SLP177 T02061011





000
SAUS45 KABQ 231954
MTRTCS
METAR KTCS 231953Z AUTO 08005KT 10SM CLR 24/05 A3020 RMK AO2 SLP152
T02440050 TSNO





000
SAUS45 KABQ 231952
MTRABQ
METAR KABQ 231952Z VRB03KT 10SM CLR 22/04 A3023 RMK AO2 SLP176
T02220039





000
SAUS45 KABQ 231952
MTRABQ
METAR KABQ 231952Z VRB03KT 10SM CLR 22/04 A3023 RMK AO2 SLP176
T02220039





000
SAUS45 KABQ 231858 COR
MTRCQC
METAR KCQC 231853Z AUTO 32018G25KT 10SM CLR 20/M03 A3029 RMK AO2 PK
WND 31026/1846 SLP184 T02001028





000
SAUS45 KABQ 231858 COR
MTRCQC
METAR KCQC 231853Z AUTO 32018G25KT 10SM CLR 20/M03 A3029 RMK AO2 PK
WND 31026/1846 SLP184 T02001028





000
SAUS45 KABQ 231856 COR
MTRCQC
METAR KCQC 231853Z AUTO 32018G25KT 10SM CLR 20/M03 A3029 RMK AO2 PK
WND 31026/1846 SLP184 T02001028





000
SAUS45 KABQ 231856 COR
MTRCQC
METAR KCQC 231853Z AUTO 32018G25KT 10SM CLR 20/M03 A3029 RMK AO2 PK
WND 31026/1846 SLP184 T02001028





000
SAUS45 KABQ 231855 COR
MTRCQC
METAR KCQC 231853Z AUTO 32018G25KT 10SM CLR 20/M03 A3029 RMK AO2 PK
WND 31026/1846 SLP184 T02001028





000
SAUS45 KABQ 231855 COR
MTRCQC
METAR KCQC 231853Z AUTO 32018G25KT 10SM CLR 20/M03 A3029 RMK AO2 PK
WND 31026/1846 SLP184 T02001028





000
SAUS45 KABQ 231854
MTRTCS
METAR KTCS 231853Z AUTO 00000KT 10SM CLR 23/06 A3023 RMK AO2 SLP165
T02280056 TSNO





000
SAUS45 KABQ 231854
MTRTCS
METAR KTCS 231853Z AUTO 00000KT 10SM CLR 23/06 A3023 RMK AO2 SLP165
T02280056 TSNO





000
SAUS45 KABQ 231854
MTRCQC
METAR KCQC 231853Z AUTO 32018G25KT 10SM CLR 20/M03 A3029 RMK AO2 PK
WND 31026/1846 SLP184 T02001028





000
SAUS45 KABQ 231854
MTRCQC
METAR KCQC 231853Z AUTO 32018G25KT 10SM CLR 20/M03 A3029 RMK AO2 PK
WND 31026/1846 SLP184 T02001028





000
SAUS45 KABQ 231852
MTRABQ
METAR KABQ 231852Z 00000KT 10SM FEW070 19/05 A3027 RMK AO2 SLP194
T01940050





000
SAUS45 KABQ 231852
MTRABQ
METAR KABQ 231852Z 00000KT 10SM FEW070 19/05 A3027 RMK AO2 SLP194
T01940050





000
SAUS45 KABQ 231754
MTRCQC
METAR KCQC 231753Z AUTO 30016G20KT 10SM CLR 19/M02 A3031 RMK AO2
SLP192 T01941017 10194 20044 58005





000
SAUS45 KABQ 231754
MTRTCS
METAR KTCS 231753Z AUTO 03004KT 10SM CLR 22/07 A3025 RMK AO2 SLP173
T02170072 10217 20111 TSNO





000
SAUS45 KABQ 231754
MTRCQC
METAR KCQC 231753Z AUTO 30016G20KT 10SM CLR 19/M02 A3031 RMK AO2
SLP192 T01941017 10194 20044 58005





000
SAUS45 KABQ 231754
MTRTCS
METAR KTCS 231753Z AUTO 03004KT 10SM CLR 22/07 A3025 RMK AO2 SLP173
T02170072 10217 20111 TSNO





000
SAUS45 KABQ 231752
MTRABQ
METAR KABQ 231752Z 24004KT 10SM FEW060 18/08 A3030 RMK AO2 SLP200
T01830078 10183 20106 58001





000
SAUS45 KABQ 231752
MTRABQ
METAR KABQ 231752Z 24004KT 10SM FEW060 18/08 A3030 RMK AO2 SLP200
T01830078 10183 20106 58001





000
SAUS45 KABQ 231654
MTRCQC
METAR KCQC 231653Z AUTO VRB04KT 10SM CLR 17/03 A3032 RMK AO2 SLP203
T01670033





000
SAUS45 KABQ 231654
MTRTCS
METAR KTCS 231653Z AUTO VRB03KT 10SM CLR 19/09 A3026 RMK AO2 SLP179
T01940094 TSNO





000
SAUS45 KABQ 231654
MTRCQC
METAR KCQC 231653Z AUTO VRB04KT 10SM CLR 17/03 A3032 RMK AO2 SLP203
T01670033





000
SAUS45 KABQ 231654
MTRTCS
METAR KTCS 231653Z AUTO VRB03KT 10SM CLR 19/09 A3026 RMK AO2 SLP179
T01940094 TSNO





000
SAUS45 KABQ 231653
MTRABQ
METAR KABQ 231652Z 00000KT 10SM FEW060 17/07 A3030 RMK AO2 SLP205
T01670072





000
SAUS45 KABQ 231653
MTRABQ
METAR KABQ 231652Z 00000KT 10SM FEW060 17/07 A3030 RMK AO2 SLP205
T01670072





000
SAUS45 KABQ 231554
MTRCQC
METAR KCQC 231553Z AUTO 32010KT 10SM CLR 14/04 A3033 RMK AO2 SLP211
T01440039





000
SAUS45 KABQ 231552
MTRABQ
METAR KABQ 231552Z 30004KT 10SM CLR 15/06 A3030 RMK AO2 SLP210
T01500056





000
SAUS45 KABQ 231454
MTRCQC
METAR KCQC 231453Z AUTO 31010KT 10SM CLR 13/04 A3033 RMK AO2 SLP209
T01280044 53018





000
SAUS45 KABQ 231454
MTRCQC
METAR KCQC 231453Z AUTO 31010KT 10SM CLR 13/04 A3033 RMK AO2 SLP209
T01280044 53018





000
SAUS45 KABQ 231452
MTRABQ
METAR KABQ 231452Z 28003KT 10SM CLR 12/06 A3030 RMK AO2 SLP212
T01220056 53022





000
SAUS45 KABQ 231452
MTRABQ
METAR KABQ 231452Z 28003KT 10SM CLR 12/06 A3030 RMK AO2 SLP212
T01220056 53022





000
SAUS45 KABQ 231354
MTRCQC
METAR KCQC 231353Z AUTO 31009KT 10SM CLR 08/04 A3030 RMK AO2 SLP215
T00780044





000
SAUS45 KABQ 231352
MTRABQ
METAR KABQ 231352Z 00000KT 10SM CLR 12/06 A3028 RMK AO2 SLP200
T01170056





000
SAUS45 KABQ 231254
MTRCQC
METAR KCQC 231253Z AUTO 29008KT 10SM CLR 06/03 A3027 RMK AO2 SLP202
T00610028





000
SAUS45 KABQ 231252
MTRABQ
METAR KABQ 231252Z 00000KT 10SM CLR 11/06 A3024 RMK AO2 SLP185
T01110061





000
SAUS45 KABQ 231158 COR
MTRCQC
METAR KCQC 231153Z AUTO 31007KT 10SM CLR 09/04 A3026 RMK AO2 SLP178
T00890039 10100 20067 55000





000
SAUS45 KABQ 231156 COR
MTRCQC
METAR KCQC 231153Z AUTO 31007KT 10SM CLR 09/04 A3026 RMK AO2 SLP178
T00890039 10100 20067 55000





000
SAUS45 KABQ 231155 COR
MTRCQC
METAR KCQC 231153Z AUTO 31007KT 10SM CLR 09/04 A3026 RMK AO2 SLP178
T00890039 10100 20067 55000





000
SAUS45 KABQ 231154
MTRCQC
METAR KCQC 231153Z AUTO 31007KT 10SM CLR 09/04 A3026 RMK AO2 SLP178
T00890039 10100 20067 55000





000
SAUS45 KABQ 231154
MTRTCS
METAR KTCS 231153Z AUTO 26008KT 10SM CLR 12/08 A3019 RMK AO2 SLP161
T01170078 10150 20111 53002 TSNO $





000
SAUS45 KABQ 231152
MTRABQ
METAR KABQ 231152Z 00000KT 10SM CLR 12/07 A3022 RMK AO2 SLP176
T01170067 10167 20111 53003





000
SAUS45 KABQ 231054
MTRCQC
METAR KCQC 231053Z AUTO 31008KT 10SM CLR 08/03 A3026 RMK AO2 SLP177
T00830028





000
SAUS45 KABQ 231054
MTRTCS
METAR KTCS 231053Z AUTO 23006KT 10SM CLR 12/08 A3018 RMK AO2 SLP158
T01170083 TSNO $





000
SAUS45 KABQ 231052
MTRABQ
METAR KABQ 231052Z 00000KT 10SM CLR 11/07 A3021 RMK AO2 SLP171
T01110067





000
SAUS45 KABQ 230954
MTRCQC
METAR KCQC 230953Z AUTO 32008KT 10SM CLR 09/03 A3025 RMK AO2 SLP170
T00890033





000
SAUS45 KABQ 230954
MTRTCS
METAR KTCS 230953Z AUTO 23004KT 10SM CLR 13/08 A3018 RMK AO2 SLP156
T01280083 TSNO $





000
SAUS45 KABQ 230954
MTRCQC
METAR KCQC 230953Z AUTO 32008KT 10SM CLR 09/03 A3025 RMK AO2 SLP170
T00890033





000
SAUS45 KABQ 230954
MTRTCS
METAR KTCS 230953Z AUTO 23004KT 10SM CLR 13/08 A3018 RMK AO2 SLP156
T01280083 TSNO $





000
SAUS45 KABQ 230952
MTRABQ
METAR KABQ 230952Z 00000KT 10SM CLR 13/06 A3021 RMK AO2 SLP169
T01330061





000
SAUS45 KABQ 230952
MTRABQ
METAR KABQ 230952Z 00000KT 10SM CLR 13/06 A3021 RMK AO2 SLP169
T01330061





000
SAUS45 KABQ 230854
MTRTCS
METAR KTCS 230853Z AUTO 26006KT 10SM CLR 13/09 A3018 RMK AO2 SLP157
T01330089 TSNO $





000
SAUS45 KABQ 230854
MTRCQC
METAR KCQC 230853Z AUTO 31009KT 10SM CLR 08/03 A3026 RMK AO2 SLP175
T00830033 50001





000
SAUS45 KABQ 230852
MTRABQ
METAR KABQ 230852Z 12003KT 10SM CLR 13/07 A3021 RMK AO2 SLP170
T01280067 52004





000
SAUS45 KABQ 230754
MTRTCS
METAR KTCS 230753Z AUTO 29005KT 10SM CLR 13/10 A3018 RMK AO2 SLP156
T01330100 TSNO $





000
SAUS45 KABQ 230754
MTRCQC
METAR KCQC 230753Z AUTO 31008KT 10SM CLR 08/02 A3026 RMK AO2 SLP181
T00830017





000
SAUS45 KABQ 230752
MTRABQ
METAR KABQ 230752Z 12006KT 10SM CLR 13/07 A3021 RMK AO2 SLP170
T01330067





000
SAUS45 KABQ 230752
MTRABQ
METAR KABQ 230752Z 12006KT 10SM CLR 13/07 A3021 RMK AO2 SLP170
T01330067





000
SAUS45 KABQ 230654
MTRTCS
METAR KTCS 230653Z AUTO 28006KT 10SM 13/11 A3017 RMK AO2 SLP156
T01330106 402330100 TSNO $





000
SAUS45 KABQ 230654
MTRCQC
METAR KCQC 230653Z AUTO 28009KT 10SM CLR 09/02 A3026 RMK AO2 SLP178
T00890017 402060061





000
SAUS45 KABQ 230653
MTRABQ
METAR KABQ 230652Z 12005KT 10SM CLR 14/07 A3020 RMK AO2 SLP168
T01390067 402280111





000
SAUS45 KABQ 230554
MTRTCS
METAR KTCS 230553Z AUTO 25004KT 10SM CLR 15/11 A3016 RMK AO2 SLP153
T01500106 10222 20144 50005 TSNO $





000
SAUS45 KABQ 230554
MTRCQC
METAR KCQC 230553Z AUTO 26006KT 10SM CLR 08/01 A3026 RMK AO2 SLP183
T00780011 10172 20078 51006





000
SAUS45 KABQ 230554
MTRCQC
METAR KCQC 230553Z AUTO 26006KT 10SM CLR 08/01 A3026 RMK AO2 SLP183
T00780011 10172 20078 51006





000
SAUS45 KABQ 230554
MTRTCS
METAR KTCS 230553Z AUTO 25004KT 10SM CLR 15/11 A3016 RMK AO2 SLP153
T01500106 10222 20144 50005 TSNO $





000
SAUS45 KABQ 230553
MTRABQ
METAR KABQ 230552Z 11003KT 10SM CLR 16/06 A3020 RMK AO2 SLP168
T01610061 10222 20144 51008





000
SAUS45 KABQ 230553
MTRABQ
METAR KABQ 230552Z 11003KT 10SM CLR 16/06 A3020 RMK AO2 SLP168
T01610061 10222 20144 51008





000
SAUS45 KABQ 230455
MTRTCS
METAR KTCS 230453Z AUTO 17004KT 10SM CLR 16/10 A3017 RMK AO2 SLP155
T01610100 TSNO $





000
SAUS45 KABQ 230455
MTRTCS
METAR KTCS 230453Z AUTO 17004KT 10SM CLR 16/10 A3017 RMK AO2 SLP155
T01610100 TSNO $





000
SAUS45 KABQ 230454
MTRCQC
METAR KCQC 230453Z AUTO 27006KT 10SM CLR 08/01 A3025 RMK AO2 SLP182
T00830011





000
SAUS45 KABQ 230454
MTRCQC
METAR KCQC 230453Z AUTO 27006KT 10SM CLR 08/01 A3025 RMK AO2 SLP182
T00830011





000
SAUS45 KABQ 230453
MTRABQ
METAR KABQ 230452Z 10004KT 10SM CLR 15/05 A3020 RMK AO2 SLP171
T01500050





000
SAUS45 KABQ 230453
MTRABQ
METAR KABQ 230452Z 10004KT 10SM CLR 15/05 A3020 RMK AO2 SLP171
T01500050





000
SAUS45 KABQ 230354
MTRCQC
METAR KCQC 230353Z AUTO 26006KT 10SM CLR 09/01 A3025 RMK AO2 SLP187
T00890011





000
SAUS45 KABQ 230354
MTRTCS
METAR KTCS 230353Z AUTO 18003KT 10SM CLR 18/09 A3016 RMK AO2 SLP151
T01780094 TSNO





000
SAUS45 KABQ 230354
MTRCQC
METAR KCQC 230353Z AUTO 26006KT 10SM CLR 09/01 A3025 RMK AO2 SLP187
T00890011





000
SAUS45 KABQ 230354
MTRTCS
METAR KTCS 230353Z AUTO 18003KT 10SM CLR 18/09 A3016 RMK AO2 SLP151
T01780094 TSNO





000
SAUS45 KABQ 230353
MTRABQ
METAR KABQ 230352Z 16005KT 10SM CLR 15/04 A3018 RMK AO2 SLP169
T01500044





000
SAUS45 KABQ 230353
MTRABQ
METAR KABQ 230352Z 16005KT 10SM CLR 15/04 A3018 RMK AO2 SLP169
T01500044





000
SAUS45 KABQ 230254
MTRCQC
METAR KCQC 230253Z AUTO 25005KT 10SM CLR 11/02 A3023 RMK AO2 SLP185
T01060017 51010





000
SAUS45 KABQ 230254
MTRTCS
METAR KTCS 230253Z AUTO 23003KT 10SM CLR 18/09 A3015 RMK AO2 SLP151
T01780094 53010 TSNO





000
SAUS45 KABQ 230253
MTRABQ
METAR KABQ 230252Z 14005KT 10SM FEW100 16/05 A3017 RMK AO2 SLP164
T01610050 53012





000
SAUS45 KABQ 230154
MTRCQC
METAR KCQC 230153Z AUTO 27006KT 10SM CLR 10/00 A3023 RMK AO2 SLP188
T01000000





000
SAUS45 KABQ 230154
MTRCQC
METAR KCQC 230153Z AUTO 27006KT 10SM CLR 10/00 A3023 RMK AO2 SLP188
T01000000





000
SAUS45 KABQ 230154
MTRTCS
METAR KTCS 230153Z AUTO 20004KT 10SM CLR 19/09 A3013 RMK AO2 SLP149
T01890094 TSNO





000
SAUS45 KABQ 230154
MTRTCS
METAR KTCS 230153Z AUTO 20004KT 10SM CLR 19/09 A3013 RMK AO2 SLP149
T01890094 TSNO





000
SAUS45 KABQ 230153
MTRABQ
METAR KABQ 230152Z 17005KT 10SM FEW100 FEW200 19/04 A3016 RMK AO2
SLP157 T01890044





000
SAUS45 KABQ 230153
MTRABQ
METAR KABQ 230152Z 17005KT 10SM FEW100 FEW200 19/04 A3016 RMK AO2
SLP157 T01890044





000
SAUS45 KABQ 230054
MTRTCS
METAR KTCS 230053Z AUTO 20004KT 10SM CLR 20/09 A3011 RMK AO2 SLP144
T02000089 TSNO





000
SAUS45 KABQ 230054
MTRTCS
METAR KTCS 230053Z AUTO 20004KT 10SM CLR 20/09 A3011 RMK AO2 SLP144
T02000089 TSNO





000
SAUS45 KABQ 230054
MTRCQC
METAR KCQC 230053Z AUTO 30010KT 10SM CLR 12/00 A3021 RMK AO2 SLP179
T01220000





000
SAUS45 KABQ 230054
MTRCQC
METAR KCQC 230053Z AUTO 30010KT 10SM CLR 12/00 A3021 RMK AO2 SLP179
T01220000





000
SAUS45 KABQ 230053
MTRABQ
METAR KABQ 230052Z 00000KT 10SM FEW100 FEW200 21/03 A3014 RMK AO2
SLP146 T02110033





000
SAUS45 KABQ 230053
MTRABQ
METAR KABQ 230052Z 00000KT 10SM FEW100 FEW200 21/03 A3014 RMK AO2
SLP146 T02110033





000
SAUS45 KABQ 222354
MTRCQC
METAR KCQC 222353Z AUTO 30012KT 10SM CLR 17/M02 A3020 RMK AO2 SLP161
T01721017 10206 20167 53002





000
SAUS45 KABQ 222354
MTRTCS
METAR KTCS 222353Z AUTO 19006KT 10SM CLR 22/07 A3011 RMK AO2 SLP138
T02220072 10233 20189 55001 TSNO





000
SAUS45 KABQ 222354
MTRCQC
METAR KCQC 222353Z AUTO 30012KT 10SM CLR 17/M02 A3020 RMK AO2 SLP161
T01721017 10206 20167 53002





000
SAUS45 KABQ 222354
MTRTCS
METAR KTCS 222353Z AUTO 19006KT 10SM CLR 22/07 A3011 RMK AO2 SLP138
T02220072 10233 20189 55001 TSNO





000
SAUS45 KABQ 222352
MTRABQ
METAR KABQ 222352Z 27003KT 10SM FEW100 SCT200 22/03 A3013 RMK AO2
SLP142 T02220028 10228 20172 56003





000
SAUS45 KABQ 222352
MTRABQ
METAR KABQ 222352Z 27003KT 10SM FEW100 SCT200 22/03 A3013 RMK AO2
SLP142 T02220028 10228 20172 56003





000
SAUS45 KABQ 222254
MTRCQC
METAR KCQC 222253Z AUTO 29010KT 10SM CLR 18/01 A3019 RMK AO2 SLP156
T01780006





000
SAUS45 KABQ 222254
MTRTCS
METAR KTCS 222253Z AUTO 19005KT 10SM CLR 23/08 A3010 RMK AO2 SLP133
T02280078 TSNO





000
SAUS45 KABQ 222254
MTRTCS
METAR KTCS 222253Z AUTO 19005KT 10SM CLR 23/08 A3010 RMK AO2 SLP133
T02280078 TSNO





000
SAUS45 KABQ 222254
MTRCQC
METAR KCQC 222253Z AUTO 29010KT 10SM CLR 18/01 A3019 RMK AO2 SLP156
T01780006





000
SAUS45 KABQ 222253
MTRABQ
METAR KABQ 222252Z 00000KT 10SM FEW070 BKN250 23/03 A3013 RMK AO2
SLP140 T02280033





000
SAUS45 KABQ 222253
MTRABQ
METAR KABQ 222252Z 00000KT 10SM FEW070 BKN250 23/03 A3013 RMK AO2
SLP140 T02280033





000
SAUS45 KABQ 222154
MTRCQC
METAR KCQC 222153Z AUTO 29014G21KT 10SM BKN070 19/02 A3019 RMK AO2
SLP150 T01940022





000
SAUS45 KABQ 222154
MTRTCS
METAR KTCS 222153Z AUTO 18006KT 10SM CLR 23/07 A3010 RMK AO2 SLP133
T02280072 TSNO





000
SAUS45 KABQ 222152
MTRABQ
METAR KABQ 222152Z VRB03KT 10SM FEW070 BKN250 22/04 A3014 RMK AO2
SLP146 T02170044





000
SAUS45 KABQ 222054
MTRTCS
METAR KTCS 222053Z AUTO 18007KT 10SM CLR 22/09 A3011 RMK AO2 SLP136
T02220089 56018 TSNO





000
SAUS45 KABQ 222054
MTRCQC
METAR KCQC 222053Z AUTO 32012G18KT 10SM SCT070 19/03 A3019 RMK AO2
SLP153 T01940028 56014





000
SAUS45 KABQ 222052
MTRABQ
METAR KABQ 222052Z 00000KT 10SM FEW070 FEW180 BKN240 22/05 A3014 RMK
AO2 SLP146 T02220050 56021





000
SAUS45 KABQ 221954
MTRCQC
METAR KCQC 221953Z AUTO 30008KT 10SM FEW047 SCT065 17/04 A3020 RMK
AO2 SLP159 T01720039





000
SAUS45 KABQ 221954
MTRTCS
METAR KTCS 221953Z AUTO 19005KT 10SM CLR 22/09 A3013 RMK AO2 SLP142
T02170089 TSNO





000
SAUS45 KABQ 221952
MTRABQ
METAR KABQ 221952Z 29004KT 10SM FEW070 BKN240 21/07 A3016 RMK AO2
SLP153 T02060067





000
SAUS45 KABQ 221854
MTRCQC
METAR KCQC 221853Z AUTO 31009KT 10SM FEW037 SCT060 17/05 A3022 RMK
AO2 SLP170 T01720050





000
SAUS45 KABQ 221854
MTRTCS
METAR KTCS 221853Z AUTO 11003KT 10SM CLR 21/11 A3016 RMK AO2 SLP153
T02060106 TSNO





000
SAUS45 KABQ 221852
MTRABQ
METAR KABQ 221852Z 00000KT 10SM FEW060 SCT240 20/08 A3019 RMK AO2
SLP163 T02000078





000
SAUS45 KABQ 221754
MTRTCS
METAR KTCS 221753Z AUTO 00000KT 10SM CLR 19/11 A3018 RMK AO2 SLP162
T01890106 10189 20100 50001 TSNO





000
SAUS45 KABQ 221754
MTRCQC
METAR KCQC 221753Z AUTO 29011G18KT 10SM CLR 17/07 A3024 RMK AO2
SLP173 T01670072 10172 20061 50001





000
SAUS45 KABQ 221754
MTRCQC
METAR KCQC 221753Z AUTO 29011G18KT 10SM CLR 17/07 A3024 RMK AO2
SLP173 T01670072 10172 20061 50001





000
SAUS45 KABQ 221754
MTRTCS
METAR KTCS 221753Z AUTO 00000KT 10SM CLR 19/11 A3018 RMK AO2 SLP162
T01890106 10189 20100 50001 TSNO





000
SAUS45 KABQ 221752
MTRABQ
METAR KABQ 221752Z 00000KT 10SM FEW050 FEW240 17/09 A3021 RMK AO2
SLP174 MTN TOPS OBSC NE T01720094 10183 20111 50000





000
SAUS45 KABQ 221752
MTRABQ
METAR KABQ 221752Z 00000KT 10SM FEW050 FEW240 17/09 A3021 RMK AO2
SLP174 MTN TOPS OBSC NE T01720094 10183 20111 50000





000
SAUS45 KABQ 221654
MTRTCS
METAR KTCS 221653Z AUTO 14005KT 10SM CLR 18/11 A3018 RMK AO2 SLP166
T01780111 TSNO





000
SAUS45 KABQ 221654
MTRTCS
METAR KTCS 221653Z AUTO 14005KT 10SM CLR 18/11 A3018 RMK AO2 SLP166
T01780111 TSNO





000
SAUS45 KABQ 221654
MTRCQC
METAR KCQC 221653Z AUTO 29014KT 10SM CLR 16/08 A3024 RMK AO2 SLP176
T01560078





000
SAUS45 KABQ 221654
MTRCQC
METAR KCQC 221653Z AUTO 29014KT 10SM CLR 16/08 A3024 RMK AO2 SLP176
T01560078





000
SAUS45 KABQ 221652
MTRABQ
METAR KABQ 221652Z 19004KT 10SM FEW035 FEW240 16/10 A3022 RMK AO2
SLP181 T01610100





000
SAUS45 KABQ 221652
MTRABQ
METAR KABQ 221652Z 19004KT 10SM FEW035 FEW240 16/10 A3022 RMK AO2
SLP181 T01610100





000
SAUS45 KABQ 221554
MTRCQC
METAR KCQC 221553Z AUTO 30018KT 10SM CLR 12/09 A3024 RMK AO2 SLP183
T01170089





000
SAUS45 KABQ 221554
MTRTCS
METAR KTCS 221553Z AUTO 25003KT 10SM CLR 17/10 A3018 RMK AO2 SLP165
T01670100 TSNO





000
SAUS45 KABQ 221554
MTRCQC
METAR KCQC 221553Z AUTO 30018KT 10SM CLR 12/09 A3024 RMK AO2 SLP183
T01170089





000
SAUS45 KABQ 221554
MTRTCS
METAR KTCS 221553Z AUTO 25003KT 10SM CLR 17/10 A3018 RMK AO2 SLP165
T01670100 TSNO





000
SAUS45 KABQ 221552
MTRABQ
METAR KABQ 221552Z 16004KT 10SM FEW030 FEW250 14/10 A3022 RMK AO2
SLP183 T01440100





000
SAUS45 KABQ 221528
MTRCQC
SPECI KCQC 221527Z AUTO 30010KT 10SM SCT004 10/08 A3024 RMK AO2
T01000083





000
SAUS45 KABQ 221504
MTRCQC
SPECI KCQC 221502Z AUTO 28003KT 3SM BR BKN002 09/08 A3024 RMK AO2
T00890083





000
SAUS45 KABQ 221503
MTRTCS
SPECI KTCS 221502Z AUTO 29006KT 10SM FEW002 14/09 A3018 RMK AO2
T01440094 TSNO





000
SAUS45 KABQ 221454
MTRTCS
METAR KTCS 221453Z AUTO 30005KT 10SM CLR 14/09 A3017 RMK AO2 SLP162
T01390094 53017 TSNO





000
SAUS45 KABQ 221454
MTRCQC
METAR KCQC 221453Z AUTO 27004KT 1 1/4SM BR OVC001 09/08 A3023 RMK
AO2 SLP188 T00890078 51013





000
SAUS45 KABQ 221452
MTRCQC
SPECI KCQC 221451Z AUTO 28004KT 1 1/2SM BR OVC001 09/08 A3023 RMK
AO2





000
SAUS45 KABQ 221452
MTRABQ
METAR KABQ 221452Z 11003KT 10SM FEW020 FEW250 14/09 A3021 RMK AO2
SLP183 T01390094 53020





000
SAUS45 KABQ 221442
MTRCQC
SPECI KCQC 221440Z AUTO 28005KT 3/4SM BR VV001 09/08 A3023 RMK AO2
T00890083





000
SAUS45 KABQ 221410
MTRCQC
SPECI KCQC 221409Z AUTO 33004KT 1/4SM FG VV001 07/06 A3021 RMK AO2
T00720061





000
SAUS45 KABQ 221405
MTRCQC
SPECI KCQC 221404Z AUTO 31005KT 1SM BR VV002 08/07 A3021 RMK AO2
T00780072





000
SAUS45 KABQ 221404
MTRCQC
SPECI KCQC 221402Z AUTO 29005KT 1 3/4SM BR CLR 08/07 A3021 RMK AO2
T00780072





000
SAUS45 KABQ 221354
MTRTCS
METAR KTCS 221353Z AUTO 29005KT 10SM CLR 11/09 A3014 RMK AO2 SLP156
T01060089 TSNO





000
SAUS45 KABQ 221354
MTRCQC
METAR KCQC 221353Z AUTO 27006KT 7SM CLR 08/07 A3020 RMK AO2 SLP175
T00780067





000
SAUS45 KABQ 221352
MTRABQ
METAR KABQ 221352Z VRB03KT 10SM FEW040 FEW100 12/08 A3018 RMK AO2
SLP170 ACSL SE MTN TOPS OBSC E-SE T01170083





000
SAUS45 KABQ 221254
MTRCQC
METAR KCQC 221253Z AUTO 32004KT 6SM BR CLR 07/06 A3019 RMK AO2
SLP174 T00670056





000
SAUS45 KABQ 221254
MTRTCS
METAR KTCS 221253Z AUTO 29004KT 10SM CLR 10/09 A3013 RMK AO2 SLP150
T01000089 TSNO





000
SAUS45 KABQ 221252
MTRABQ
METAR KABQ 221252Z 11003KT 10SM FEW040 SCT100 12/08 A3016 RMK AO2
SLP160 MTN TOPS OBSC NE-SE T01170083





000
SAUS45 KABQ 221205
MTRCQC
SPECI KCQC 221203Z AUTO 29005KT 9SM SCT001 07/06 A3018 RMK AO2
T00670061





    US Dept of Commerce
    National Oceanic and Atmospheric Administration
    National Weather Service
    1325 East West Highway
    Silver Spring, MD 20910
    Page Author: NWS Internet Services Team
Disclaimer
Information Quality
Credits
Glossary
Privacy Policy
Freedom of Information Act (FOIA)
About Us
Career Opportunities